Edgewater, Ohio
Current Conditions -  °F | °C
As of 1:51 PM on Wednesday 26 Nov 2014 (Local Time) from KCLE Reporting Station
Overcast Overcast  
Wind Chill: 37°   Ceiling: 3500
Heat Index: 37°   Visibility: 10mi
Dew Point: 24°   Wind: 0mph
Humidity: 59%   Direction: NA
Pressure: 30.08"   Gusts: NA
Location:  41.4825°N, 81.8004°W
Report Text: KCLE 261851Z 00000KT 10SM OVC035 03/M04 A3008 RMK AO2 SLP193 T00281044
Loading
Personal Weather Stations






























Interactive Weather Map New forecast layout! Learn more

10-Day Weather Forecast

Advertisements
Track Severe Weather on mobile